Waskaganish Airport
CYKQ : now visible

Airfield :











YOU CAN JOIN US ON...

 
LOGIN :

Register | Disclaimer

   EN    FR    IT 

 









Legend :    VFR   Marginal VFR   IFR   Intensive IFR   Very Intensive IFR
Visi :
Ceiling :
>= 8 km
>= 3000ft
5 to 8 km
1000 to 3000 ft
1500m to 5 km
500 to 1000 ft
800 to 1500m
200 to 500 ft
< 800m
< 200 ft
Symbols :   Thunderstorms  Fog  Heavy snow  Heavy precipitations  Wind > 20 kt






- Airport Elevation : 80 ft
- IATA code : YKQ


CYKQ - Waskaganish

CURRENT METAR :
  • 261400Z 19004KT 15SM FEW010 FEW060 SCT140 BKN200 BKN250 M06/M06 A3019 RMK SF1SC1AC1CI3CC1 SF TR SC TR SLP227

EXPIRED METARs :
  • 261300Z 16004KT 15SM FEW010 FEW060 SCT160 BKN200 BKN250 M08/M09 A3020 RMK SF1SC1AC1CI2CC1 SF TR SC TR SLP229

TAF TAF CYKQ
Valid from the 26 at 15:00 until the 26 at 21:00 UTC


261448Z 2615/2621 20006KT P6SM FEW010 SCT140 BKN200
FM261800 26008KT P6SM BKN030
TEMPO 2618/2621 P6SM -SHSN
BECMG 2619/2621 28010KT RMK NXT FCST WILL BE ISSUED AT 271445Z
CZUL FIR / North America



MET'MAP, your aeronautical weather chart ! - Copyright ORBIFLY December 2007 - Disclaimer

ORBIFLY MET'MAP TEAM :

Programming & Development : Alexandra Zaïnal
Concept & original design : Baudouin d'Aumeries
Assistance for programming : Marc-Olivier Méhu
Technical & hardware support : Manuel Goepfert

Contact : metmap@orbifly.com




SOURCES & CREDITS :

   NOAA       Earth
Advisory